地図

経路データ

SID SEASON NUMBER BASIN SUBBASIN NAME ISO_TIME NATURE LAT LON WMO_WIND WMO_PRES WMO_AGENCY TRACK_TYPE DIST2LAND LANDFALL IFLAG USA_AGENCY USA_ATCF_ID USA_LAT USA_LON USA_RECORD USA_STATUS USA_WIND USA_PRES USA_SSHS USA_R34_NE USA_R34_SE USA_R34_SW USA_R34_NW USA_R50_NE USA_R50_SE USA_R50_SW USA_R50_NW USA_R64_NE USA_R64_SE USA_R64_SW USA_R64_NW USA_POCI USA_ROCI USA_RMW USA_EYE TOKYO_LAT TOKYO_LON TOKYO_GRADE TOKYO_WIND TOKYO_PRES TOKYO_R50_DIR TOKYO_R50_LONG TOKYO_R50_SHORT TOKYO_R30_DIR TOKYO_R30_LONG TOKYO_R30_SHORT TOKYO_LAND CMA_LAT CMA_LON CMA_CAT CMA_WIND CMA_PRES HKO_LAT HKO_LON HKO_CAT HKO_WIND HKO_PRES NEWDELHI_LAT NEWDELHI_LON NEWDELHI_GRADE NEWDELHI_WIND NEWDELHI_PRES NEWDELHI_CI NEWDELHI_DP NEWDELHI_POCI REUNION_LAT REUNION_LON REUNION_TYPE REUNION_WIND REUNION_PRES REUNION_TNUM REUNION_CI REUNION_RMW REUNION_R34_NE REUNION_R34_SE REUNION_R34_SW REUNION_R34_NW REUNION_R50_NE REUNION_R50_SE REUNION_R50_SW REUNION_R50_NW REUNION_R64_NE REUNION_R64_SE REUNION_R64_SW REUNION_R64_NW BOM_LAT BOM_LON BOM_TYPE BOM_WIND BOM_PRES BOM_TNUM BOM_CI BOM_RMW BOM_R34_NE BOM_R34_SE BOM_R34_SW BOM_R34_NW BOM_R50_NE BOM_R50_SE BOM_R50_SW BOM_R50_NW BOM_R64_NE BOM_R64_SE BOM_R64_SW BOM_R64_NW BOM_ROCI BOM_POCI BOM_EYE BOM_POS_METHOD BOM_PRES_METHOD NADI_LAT NADI_LON NADI_CAT NADI_WIND NADI_PRES WELLINGTON_LAT WELLINGTON_LON WELLINGTON_WIND WELLINGTON_PRES DS824_LAT DS824_LON DS824_STAGE DS824_WIND DS824_PRES TD9636_LAT TD9636_LON TD9636_STAGE TD9636_WIND TD9636_PRES TD9635_LAT TD9635_LON TD9635_WIND TD9635_PRES TD9635_ROCI NEUMANN_LAT NEUMANN_LON NEUMANN_CLASS NEUMANN_WIND NEUMANN_PRES MLC_LAT MLC_LON MLC_CLASS MLC_WIND MLC_PRES USA_GUST BOM_GUST BOM_GUST_PER REUNION_GUST REUNION_GUST_PER USA_SEAHGT USA_SEARAD_NE USA_SEARAD_SE USA_SEARAD_SW USA_SEARAD_NW STORM_SPEED STORM_DIR
1977362S10073 1978 124 SI MM ESTHER 1977-12-28 06:00:00 TS -10.3000 72.5200 20 1003 reunion main 1928 1888 O____O___OO_O_ jtwc_sh SH101978 -10.5000 72.0000 -1 -10.0000 73.3000 2 20 1003 1.50000 1.50000 -10.5000 72.0000 TC 25 -10.5000 72.0000 1 -10.0000 73.3000 TC 25 1003 8 244
1977362S10073 1978 124 SI MM ESTHER 1977-12-28 09:00:00 TS -10.4761 72.1549 main 1888 1840 P____P___PP_P_ SH101978 -10.7501 71.6576 -1 -10.0676 72.9000 2 -10.7501 71.6576 TC 25 -10.7453 71.6595 1 -10.0676 72.9000 TC 30 8 242
1977362S10073 1978 124 SI MM ESTHER 1977-12-28 12:00:00 TS -10.6785 71.7810 reunion main 1840 1791 O____O___OP_O_ jtwc_sh SH101978 -11.0000 71.3000 -1 -10.2000 72.5000 99 9.90000 -11.0000 71.3000 TC 25 -10.9924 71.3050 1 -10.2000 72.5000 TC 35 9 239
1977362S10073 1978 124 SI MM ESTHER 1977-12-28 15:00:00 TS -10.9226 71.3906 main 1791 1736 P____P___PP_P_ SH101978 -11.2499 70.9149 -1 -10.4350 72.1000 99 -11.2499 70.9149 TC 25 -11.2433 70.9230 1 -10.4350 72.1000 TC 35 9 237
1977362S10073 1978 124 SI MM ESTHER 1977-12-28 18:00:00 TS -11.1800 70.9800 reunion main 1736 1688 O____O___OO_O_ jtwc_sh SH101978 -11.5000 70.5000 -1 -10.7000 71.7000 99 9.90000 -11.5000 70.5000 TC 25 -11.5000 70.5000 1 -10.7000 71.7000 TC 35 10 240
1977362S10073 1978 124 SI MM ESTHER 1977-12-28 21:00:00 TS -11.4038 70.5435 main 1679 1631 P____P___PP_P_ SH101978 -11.7425 70.0499 -1 -10.8850 71.2924 99 -11.7425 70.0499 TC 25 -11.7641 70.0328 1 -10.8850 71.2924 TC 37 10 241
1977362S10073 1978 124 SI MM ESTHER 1977-12-29 00:00:00 TS -11.6471 70.1121 reunion main 1631 1576 O____O___OP_O_ jtwc_sh SH101978 -12.0000 69.6000 -1 -11.1000 70.9000 99 9.90000 -12.0000 69.6000 TC 25 -12.0356 69.5605 1 -11.1000 70.9000 TC 40 10 236
1977362S10073 1978 124 SI MM ESTHER 1977-12-29 03:00:00 TS -11.9628 69.6937 main 1569 1523 P____P___PP_P_ SH101978 -12.2925 69.1551 -1 -11.4575 70.5127 99 -12.2925 69.1551 TC 30 -12.3141 69.1329 1 -11.4575 70.5127 TC 35 10 229
1977362S10073 1978 124 SI MM ESTHER 1977-12-29 06:00:00 TS -12.2800 69.3600 24 1000 reunion main 1523 1492 O____O___OO_O_ jtwc_sh SH101978 -12.6000 68.8000 -1 -11.8000 70.2000 2 24 1000 2.00000 2.00000 -12.6000 68.8000 TC 35 -12.6000 68.8000 2 -11.8000 70.2000 TC 30 1000 8 222
1977362S10073 1978 124 SI MM ESTHER 1977-12-29 09:00:00 TS -12.5214 69.1752 main 1492 1470 P____P___PP_P_ SH101978 -12.8999 68.5899 -1 -11.9574 70.0422 2 -12.8999 68.5899 TC 35 -12.8924 68.6118 2 -11.9574 70.0422 TC 37 6 211
1977362S10073 1978 124 SI MM ESTHER 1977-12-29 12:00:00 TS -12.7584 69.0644 reunion main 1464 1433 O____O___OP_O_ jtwc_sh SH101978 -13.2000 68.5000 -1 -12.1000 69.9000 99 9.90000 -13.2000 68.5000 TC 35 -13.1920 68.5220 2 -12.1000 69.9000 TC 45 6 204
1977362S10073 1978 124 SI MM ESTHER 1977-12-29 15:00:00 TS -13.0532 68.9303 main 1426 1405 P____P___PP_P_ SH101978 -13.5000 68.4774 -1 -12.3851 69.6002 99 -13.5000 68.4774 TC 35 -13.4957 68.4962 2 -12.3851 69.6002 TC 50 7 201
1977362S10073 1978 124 SI MM ESTHER 1977-12-29 18:00:00 TS -13.3600 68.8200 reunion main 1399 1386 O____O___OO_O_ jtwc_sh SH101978 -13.8000 68.5000 -1 -12.7000 69.3000 99 9.90000 -13.8000 68.5000 TC 35 -13.8000 68.5000 2 -12.7000 69.3000 TC 55 6 197
1977362S10073 1978 124 SI MM ESTHER 1977-12-29 21:00:00 TS -13.6275 68.7506 main 1386 1359 P____P___PP_P_ SH101978 -14.1000 68.5000 -1 -12.9349 69.1273 99 -14.1000 68.5000 TC 35 -14.0675 68.4983 2 -12.9349 69.1273 TC 57 6 192
1977362S10073 1978 124 SI MM ESTHER 1977-12-30 00:00:00 TS -13.9080 68.7029 reunion main 1359 1341 O____O___OP_O_ jtwc_sh SH101978 -14.4000 68.5000 -1 -13.2000 69.0000 99 9.90000 -14.4000 68.5000 TC 35 -14.3400 68.5144 2 -13.2000 69.0000 TC 60 6 188
1977362S10073 1978 124 SI MM ESTHER 1977-12-30 03:00:00 TS -14.2185 68.6595 main 1341 1309 P____P___PP_P_ SH101978 -14.6775 68.5149 -1 -13.5474 68.8723 99 -14.6775 68.5149 TC 35 -14.6425 68.5232 2 -13.5474 68.8723 TC 57 7 190
1977362S10073 1978 124 SI MM ESTHER 1977-12-30 06:00:00 TS -14.6000 68.5800 44 984 reunion main 1309 1264 O____O___OO_O_ jtwc_sh SH101978 -15.0000 68.5000 -1 -14.0000 68.7000 3 44 984 3.50000 3.50000 -15.0000 68.5000 TC 35 -15.0000 68.5000 2 -14.0000 68.7000 TC 55 984 9 196
1977362S10073 1978 124 SI MM ESTHER 1977-12-30 09:00:00 TS -15.0859 68.4124 main 1264 1219 P____P___PP_P_ SH101978 -15.4125 68.4225 -1 -14.5851 68.3929 3 -15.4125 68.4225 TC 35 -15.4344 68.4310 2 -14.5851 68.3929 TC 60 11 198
1977362S10073 1978 124 SI MM ESTHER 1977-12-30 12:00:00 TS -15.6250 68.2249 reunion main 1219 1184 O____O___OP_O_ jtwc_sh SH101978 -15.9000 68.3000 -1 -15.2000 68.1000 99 9.90000 -15.9000 68.3000 TC 35 -15.9250 68.3246 2 -15.2000 68.1000 TC 65 11 196
1977362S10073 1978 124 SI MM ESTHER 1977-12-30 15:00:00 TS -16.1386 68.0959 main 1184 1152 P____P___PP_P_ SH101978 -16.4425 68.1724 -1 -15.6774 67.9771 99 -16.4425 68.1724 TC 35 -16.4531 68.1808 2 -15.6774 67.9771 TC 62 11 193
1977362S10073 1978 124 SI MM ESTHER 1977-12-30 18:00:00 TS -16.6800 67.9600 reunion main 1148 1108 O____O___OO_O_ jtwc_sh SH101978 -17.0000 68.0000 -1 -16.2000 67.9000 99 9.90000 -17.0000 68.0000 TC 35 -17.0000 68.0000 2 -16.2000 67.9000 TC 60 12 196
1977362S10073 1978 124 SI MM ESTHER 1977-12-30 21:00:00 TS -17.2777 67.7569 main 1104 1053 P____P___PP_P_ SH101978 -17.4925 67.7649 -1 -16.9500 67.7502 99 -17.4925 67.7649 TC 35 -17.5035 67.7541 2 -16.9500 67.7502 TC 57 13 199
1977362S10073 1978 124 SI MM ESTHER 1977-12-31 00:00:00 TS -17.8851 67.5357 reunion main 1053 1018 O____O___OP_O_ jtwc_sh SH101978 -18.0000 67.5000 -1 -17.7000 67.6000 99 9.90000 -18.0000 67.5000 TC 35 -18.0256 67.4785 2 -17.7000 67.6000 TC 55 12 199
1977362S10073 1978 124 SI MM ESTHER 1977-12-31 03:00:00 TS -18.4340 67.3277 main 1018 994 P____P___PP_P_ SH101978 -18.5700 67.2276 -1 -18.2225 67.4848 99 -18.5700 67.2276 TC 35 -18.5848 67.2136 2 -18.2225 67.4848 TC 50 12 198
1977362S10073 1978 124 SI MM ESTHER 1977-12-31 06:00:00 TS -19.0000 67.1600 36 991 reunion main 994 975 O____O___OO_O_ jtwc_sh SH101978 -19.2000 67.0000 -1 -18.7000 67.4000 3 36 991 3.00000 3.00000 -19.2000 67.0000 TC 35 -19.2000 67.0000 2 -18.7000 67.4000 TC 45 991 12 192
1977362S10073 1978 124 SI MM ESTHER 1977-12-31 09:00:00 TS -19.6260 67.0541 main 975 959 P____P___PP_P_ SH101978 -19.8700 66.8624 -1 -19.2550 67.3350 3 -19.8700 66.8624 TC 35 -19.8802 66.8758 2 -19.2550 67.3350 TC 47 13 186
1977362S10073 1978 124 SI MM ESTHER 1977-12-31 12:00:00 TS -20.3235 67.0019 reunion main 959 958 O____O___OP_O_ jtwc_sh SH101978 -20.6000 66.8000 -1 -19.9000 67.3000 99 9.90000 -20.6000 66.8000 TC 35 -20.6175 66.8096 2 -19.9000 67.3000 TC 50 15 183
1977362S10073 1978 124 SI MM ESTHER 1977-12-31 15:00:00 TS -21.0982 66.9857 main 960 960 P____P___PP_P_ SH101978 -21.3775 66.7774 -1 -20.6700 67.2924 99 -21.3775 66.7774 TC 35 -21.3960 66.7886 2 -20.6700 67.2924 TC 47 16 0
1977362S10073 1978 124 SI MM ESTHER 1977-12-31 18:00:00 TS -21.9200 67.0000 reunion main 970 970 O____O___OO_O_ jtwc_sh SH101978 -22.2000 66.8000 -1 -21.5000 67.3000 99 9.90000 -22.2000 66.8000 TC 35 -22.2000 66.8000 2 -21.5000 67.3000 TC 45 16 179
1977362S10073 1978 124 SI MM ESTHER 1977-12-31 21:00:00 TS -22.7371 67.0068 main 988 988 P____P___PP_P_ SH101978 -23.0500 66.8424 -1 -22.2850 67.2779 99 -23.0500 66.8424 TC 30 -23.0155 66.7935 2 -22.2850 67.2779 TC 42 17 179
1977362S10073 1978 124 SI MM ESTHER 1978-01-01 00:00:00 TS -23.5700 67.0437 reunion main 1017 1017 O____O___OP_O_ jtwc_sh SH101978 -23.9000 66.9000 -1 -23.1000 67.3000 99 9.90000 -23.9000 66.9000 TC 25 -23.8498 66.8187 2 -23.1000 67.3000 TC 40 17 177
1977362S10073 1978 124 SI MM ESTHER 1978-01-01 03:00:00 TS -24.4288 67.1219 main 1059 1059 P____P___PP_P_ SH101978 -24.7150 66.9353 -1 -24.0150 67.4271 99 -24.7150 66.9353 TC 25 -24.6842 66.8846 2 -24.0150 67.4271 TC 32 17 174
1977362S10073 1978 124 SI MM ESTHER 1978-01-01 06:00:00 MX -25.2600 67.2400 20 1003 reunion main 1110 1110 O____O___OO_O_ jtwc_sh SH101978 -25.5000 67.0000 -1 -24.9000 67.6000 5 20 1003 1.50000 1.50000 -25.5000 67.0000 TC 25 -25.5000 67.0000 1 -24.9000 67.6000 EX 25 1003 16 172
1977362S10073 1978 124 SI MM ESTHER 1978-01-01 09:00:00 MX -26.0132 67.3729 main 1165 1165 P____P___PP_P_ SH101978 -26.2574 67.1129 -1 -25.6300 67.7576 5 -26.2574 67.1129 TC 25 -26.2911 67.1233 1 -25.6300 67.7576 EX 27 15 170
1977362S10073 1978 124 SI MM ESTHER 1978-01-01 12:00:00 MX -26.7317 67.5405 reunion main 1214 1214 O____O___OP_O_ jtwc_sh SH101978 -27.0000 67.3000 -1 -26.3000 67.9000 99 9.90000 -27.0000 67.3000 TC 25 -27.0586 67.3025 1 -26.3000 67.9000 EX 30 15 168
1977362S10073 1978 124 SI MM ESTHER 1978-01-01 15:00:00 MX -27.4683 67.7245 main 1280 1280 P____P___PP_P_ SH101978 -27.7649 67.5553 -1 -27.0074 67.9783 99 -27.7649 67.5553 TC 25 -27.7970 67.5554 1 -27.0074 67.9783 EX 27 15 165
1977362S10073 1978 124 SI MM ESTHER 1978-01-01 18:00:00 MX -28.1800 67.9800 reunion main 1350 1350 O____O___OO_O_ jtwc_sh SH101978 -28.5000 67.9000 -1 -27.7000 68.1000 99 9.90000 -28.5000 67.9000 TC 25 -28.5000 67.9000 1 -27.7000 68.1000 EX 25 15 158
1977362S10073 1978 124 SI MM ESTHER 1978-01-01 21:00:00 MX -28.8297 68.3398 main 1415 1415 P____P___PP_P_ SH101978 -29.1722 68.2983 -1 -28.3201 68.3775 99 -29.1722 68.2983 TC 25 -29.1640 68.3475 1 -28.3201 68.3775 EX 25 15 152
1977362S10073 1978 124 SI MM ESTHER 1978-01-02 00:00:00 MX -29.4791 68.7761 reunion main 1501 1501 O____O___OP_O_ jtwc_sh SH101978 -29.8000 68.8000 -1 -29.0000 68.7000 99 9.90000 -29.8000 68.8000 TC 25 -29.7957 68.8803 1 -29.0000 68.7000 EX 25 16 150
1977362S10073 1978 124 SI MM ESTHER 1978-01-02 03:00:00 MX -30.1822 69.2486 main 1581 1581 P____P___PP_P_ SH101978 -30.4059 69.4156 -1 -29.8475 68.9693 99 -30.4059 69.4156 TC 25 -30.4045 69.4731 1 -29.8475 68.9693 EX 22 17 150
1977362S10073 1978 124 SI MM ESTHER 1978-01-02 06:00:00 TS -30.9200 69.7400 reunion main 1668 O____O___OO_O_ jtwc_sh SH101978 -31.0000 70.1000 -1 -30.8000 69.2000 6 9.90000 -31.0000 70.1000 TC 25 -31.0000 70.1000 1 -30.8000 69.2000 TC 20 17 150

IBTrACS Databaseについて

本データベースは、米国NOAAが公開する1842年以降の世界の熱帯低気圧のベストトラックデータアーカイブInternational Best Track Archive for Climate Stewardship (IBTrACS)を、ウェブで閲覧しやすい形式に変換したものです。

最終更新日:2021-10-08